FW1522 Eastport NY US current weather conditions

sailwx.info

Wind from 204 at 2 knots gusting 4

Air temperature 26.1° C
Dewpoint 23.2° C

Last reported at 2020-Aug-13 16:58 UTC.
Time now 2020-Aug-13 18:01 UTC

Location: N 40°51' W 072°44'.
View on Google Maps.

See reports from other nearby stations

  
Tides and Currents Weather Stations Pressure Air Temp Water Temp Dewpoint Dewpoint Depression Visibility Wind Speed Wind Dir Waves Ship Positions
date/time (UTC)wind fromknots sea level pressurealtimeterstation pressurevisibilityair tempwater tempwave heightnotes
2020-Aug-13 16:58 204 2 gusting 4 26.1
2020-Aug-13 16:30 217 1 gusting 5 26.1
2020-Aug-13 15:58 166 5 gusting 8 25.6
2020-Aug-13 15:28 191 5 gusting 10 26.1
2020-Aug-13 15:13 287 0 gusting 3 25.6
2020-Aug-13 14:43 344 3 gusting 6 26.7
2020-Aug-13 14:28 166 4 gusting 7 26.1
2020-Aug-13 14:03 031 1 gusting 6 26.7
2020-Aug-13 13:43 047 2 gusting 5 26.7
2020-Aug-13 13:28 030 2 gusting 6 26.7
2020-Aug-13 13:13 105 3 gusting 6 26.1
2020-Aug-13 12:58 090 3 gusting 5 25.0
2020-Aug-13 12:28 073 1 gusting 5 24.4
2020-Aug-13 12:13 022 0 gusting 3 23.9
2020-Aug-13 11:58 015 1 gusting 2 23.9
2020-Aug-13 11:43 272 23.3
2020-Aug-13 11:13 272 0 gusting 1 23.3
2020-Aug-13 10:58 272 22.8
2020-Aug-13 10:43 272 22.8
2020-Aug-13 10:13 272 22.8
2020-Aug-13 09:58 272 0 gusting 2 22.8
2020-Aug-13 09:43 272 0 gusting 1 22.8
2020-Aug-13 09:13 272 22.8
2020-Aug-13 08:58 272 22.8
2020-Aug-13 08:13 272 0 gusting 1 22.8
2020-Aug-13 07:44 272 22.8
2020-Aug-13 07:28 272 23.3
2020-Aug-13 07:13 272 23.3
2020-Aug-13 06:58 272 23.3
2020-Aug-13 06:28 272 23.3
2020-Aug-13 06:13 272 23.3
2020-Aug-13 05:58 272 0 gusting 1 23.9
2020-Aug-13 05:43 272 23.9
2020-Aug-13 05:13 272 23.9
2020-Aug-13 04:58 272 23.9
2020-Aug-13 04:28 211 23.9
2020-Aug-13 03:58 203 1 gusting 3 23.9
2020-Aug-13 03:43 211 1 gusting 4 23.9
2020-Aug-13 03:28 236 1 gusting 4 23.9
2020-Aug-13 02:58 199 3 gusting 5 23.9
2020-Aug-13 02:43 222 3 gusting 6 24.4
2020-Aug-13 02:28 202 1 gusting 7 24.4
2020-Aug-13 02:13 242 4 gusting 7 23.9
2020-Aug-13 01:48 222 2 gusting 4 24.4
2020-Aug-13 01:28 222 1 gusting 2 24.4
2020-Aug-13 00:58 201 2 gusting 5 24.4
2020-Aug-13 00:28 227 2 gusting 6 25.0
2020-Aug-13 00:13 194 3 gusting 5 25.0
2020-Aug-12 23:58 193 2 gusting 5 25.6
2020-Aug-12 23:28 192 2 gusting 6 25.6
2020-Aug-12 23:13 194 3 gusting 6 25.6
2020-Aug-12 22:58 227 1 gusting 3 25.6
2020-Aug-12 22:43 240 1 gusting 6 25.6
2020-Aug-12 22:28 195 1 gusting 6 25.0
2020-Aug-12 21:58 192 5 gusting 7 25.6
2020-Aug-12 21:43 217 4 gusting 8 25.6
2020-Aug-12 21:13 181 4 gusting 7 26.1
2020-Aug-12 20:43 231 3 gusting 8 26.1
2020-Aug-12 20:28 190 6 gusting 12 27.2
2020-Aug-12 19:58 192 4 gusting 7 26.7
2020-Aug-12 19:43 178 7 gusting 11 27.8
2020-Aug-12 19:28 190 6 gusting 10 28.3
2020-Aug-12 18:58 178 6 gusting 9 28.3
2020-Aug-12 18:28 161 6 gusting 10 28.3
2020-Aug-12 18:13 192 5 gusting 8 28.3
2020-Aug-12 17:28 168 6 gusting 8 27.8
2020-Aug-12 17:13 154 6 gusting 9 27.8
2020-Aug-12 16:43 215 5 gusting 9 28.3
2020-Aug-12 16:28 196 3 gusting 6 28.3
2020-Aug-12 15:58 282 1 gusting 6 28.3
2020-Aug-12 15:28 242 1 gusting 6 28.3
2020-Aug-12 15:13 262 1 gusting 6 27.8
2020-Aug-12 14:58 257 1 gusting 7 27.2
2020-Aug-12 14:28 291 0 gusting 6 26.7
2020-Aug-12 14:13 235 1 gusting 6 26.1
2020-Aug-12 13:58 192 4 gusting 7 26.1
2020-Aug-12 13:28 202 1 gusting 6 25.6
2020-Aug-12 13:13 279 0 gusting 4 25.6
2020-Aug-12 12:58 266 24.4
2020-Aug-12 12:43 255 1 gusting 6 23.3
2020-Aug-12 12:13 312 3 gusting 5 22.8
2020-Aug-12 11:58 300 1 gusting 3 22.8
2020-Aug-12 11:28 197 3 gusting 6 22.2
2020-Aug-12 11:13 227 22.2
2020-Aug-12 10:58 195 2 gusting 7 22.2
2020-Aug-12 10:28 270 6 gusting 19 23.3
2020-Aug-12 10:13 252 1 gusting 8 23.9
2020-Aug-12 09:58 264 0 gusting 3 23.9
2020-Aug-12 09:28 250 23.9
2020-Aug-12 09:13 258 0 gusting 7 23.9
2020-Aug-12 08:58 234 0 gusting 7 23.9
2020-Aug-12 08:43 238 1 gusting 6 23.9
2020-Aug-12 08:13 200 4 gusting 7 24.4
2020-Aug-12 07:43 215 2 gusting 9 24.4
2020-Aug-12 07:28 237 3 gusting 7 24.4
2020-Aug-12 06:58 228 0 gusting 6 24.4
2020-Aug-12 06:28 219 3 gusting 12 24.4
2020-Aug-12 06:13 220 4 gusting 12 24.4
2020-Aug-12 05:58 217 4 gusting 10 24.4
2020-Aug-12 05:43 225 2 gusting 9 24.4
2020-Aug-12 05:13 247 4 gusting 9 24.4
2020-Aug-12 04:58 175 4 gusting 12 25.0
2020-Aug-12 04:28 213 5 gusting 13 25.0
2020-Aug-12 03:58 171 7 gusting 13 25.0
2020-Aug-12 03:43 205 5 gusting 13 25.0
2020-Aug-12 03:28 197 5 gusting 13 25.0
2020-Aug-12 02:58 224 5 gusting 17 25.0
2020-Aug-12 02:28 198 6 gusting 13 25.0
2020-Aug-12 02:13 191 6 gusting 12 25.0
2020-Aug-12 01:58 197 6 gusting 15 25.0
2020-Aug-12 01:28 177 6 gusting 13 25.0
2020-Aug-12 01:13 228 6 gusting 12 25.0
2020-Aug-12 00:58 192 6 gusting 10 25.0
2020-Aug-12 00:28 227 4 gusting 9 25.0
2020-Aug-11 23:58 204 6 gusting 15 25.0
2020-Aug-11 23:43 195 5 gusting 12 25.0
2020-Aug-11 23:28 178 6 gusting 14 25.0
2020-Aug-11 22:58 217 5 gusting 13 25.0
2020-Aug-11 22:43 239 6 gusting 14 25.6
2020-Aug-11 22:13 200 6 gusting 13 25.6
2020-Aug-11 21:58 246 5 gusting 14 25.6
2020-Aug-11 21:28 207 7 gusting 14 25.6
2020-Aug-11 21:13 276 10 gusting 14 25.6
2020-Aug-11 20:58 200 8 gusting 13 25.6
2020-Aug-11 20:28 213 7 gusting 14 26.1
2020-Aug-11 20:13 225 6 gusting 13 26.7
2020-Aug-11 19:58 205 6 gusting 15 26.7
2020-Aug-11 19:43 209 8 gusting 12 26.7
2020-Aug-11 19:13 242 4 gusting 15 26.7
2020-Aug-11 18:58 192 9 gusting 14 26.7
2020-Aug-11 18:13 183 8 gusting 13 27.2